sensor_id;sensor_type;location;lat;lon;timestamp;P1;durP1;ratioP1;P2;durP2;ratioP2
18931;SDS011;9598;50.954;3.112;2023-01-01T00:00:44;7.63;;;2.90;;
18931;SDS011;9598;50.954;3.112;2023-01-01T00:05:47;9.20;;;3.13;;
18931;SDS011;9598;50.954;3.112;2023-01-01T00:10:51;7.57;;;3.58;;
18931;SDS011;9598;50.954;3.112;2023-01-01T00:15:53;7.93;;;3.00;;
18931;SDS011;9598;50.954;3.112;2023-01-01T00:21:00;9.60;;;3.20;;
18931;SDS011;9598;50.954;3.112;2023-01-01T00:26:09;5.80;;;2.72;;
18931;SDS011;9598;50.954;3.112;2023-01-01T00:31:12;6.88;;;2.95;;
18931;SDS011;9598;50.954;3.112;2023-01-01T00:36:16;7.82;;;3.20;;
18931;SDS011;9598;50.954;3.112;2023-01-01T00:41:20;6.68;;;2.97;;
18931;SDS011;9598;50.954;3.112;2023-01-01T00:46:23;7.22;;;2.67;;
18931;SDS011;9598;50.954;3.112;2023-01-01T00:51:25;7.47;;;2.78;;
18931;SDS011;9598;50.954;3.112;2023-01-01T00:56:28;7.38;;;2.45;;
18931;SDS011;9598;50.954;3.112;2023-01-01T01:01:31;8.60;;;3.20;;
18931;SDS011;9598;50.954;3.112;2023-01-01T01:06:33;9.25;;;2.38;;
18931;SDS011;9598;50.954;3.112;2023-01-01T01:11:37;4.20;;;2.42;;
18931;SDS011;9598;50.954;3.112;2023-01-01T01:16:39;7.03;;;2.63;;
18931;SDS011;9598;50.954;3.112;2023-01-01T01:21:41;8.05;;;2.45;;
18931;SDS011;9598;50.954;3.112;2023-01-01T01:26:45;5.68;;;2.80;;
18931;SDS011;9598;50.954;3.112;2023-01-01T01:31:47;7.57;;;2.60;;
18931;SDS011;9598;50.954;3.112;2023-01-01T01:36:49;10.73;;;3.25;;
18931;SDS011;9598;50.954;3.112;2023-01-01T01:41:53;7.22;;;2.40;;
18931;SDS011;9598;50.954;3.112;2023-01-01T01:46:55;8.75;;;2.58;;
18931;SDS011;9598;50.954;3.112;2023-01-01T01:51:59;6.50;;;2.70;;
18931;SDS011;9598;50.954;3.112;2023-01-01T01:57:04;7.28;;;2.50;;
18931;SDS011;9598;50.954;3.112;2023-01-01T02:02:11;6.38;;;2.13;;
18931;SDS011;9598;50.954;3.112;2023-01-01T02:07:18;5.35;;;2.58;;
18931;SDS011;9598;50.954;3.112;2023-01-01T02:12:26;7.97;;;2.70;;
18931;SDS011;9598;50.954;3.112;2023-01-01T02:17:29;6.82;;;2.90;;
18931;SDS011;9598;50.954;3.112;2023-01-01T02:22:44;8.23;;;3.00;;
18931;SDS011;9598;50.954;3.112;2023-01-01T02:27:56;6.47;;;2.45;;
18931;SDS011;9598;50.954;3.112;2023-01-01T02:33:08;4.88;;;2.42;;
18931;SDS011;9598;50.954;3.112;2023-01-01T02:38:15;11.00;;;3.15;;
18931;SDS011;9598;50.954;3.112;2023-01-01T02:43:21;6.60;;;2.92;;
18931;SDS011;9598;50.954;3.112;2023-01-01T02:48:39;5.10;;;2.35;;
18931;SDS011;9598;50.954;3.112;2023-01-01T02:53:45;6.47;;;2.15;;
18931;SDS011;9598;50.954;3.112;2023-01-01T02:58:56;4.28;;;2.00;;
18931;SDS011;9598;50.954;3.112;2023-01-01T03:04:28;7.35;;;2.80;;
18931;SDS011;9598;50.954;3.112;2023-01-01T03:09:42;6.97;;;2.25;;
18931;SDS011;9598;50.954;3.112;2023-01-01T03:14:55;7.70;;;3.00;;
18931;SDS011;9598;50.954;3.112;2023-01-01T03:20:04;6.18;;;2.55;;
18931;SDS011;9598;50.954;3.112;2023-01-01T03:25:11;8.55;;;2.47;;
18931;SDS011;9598;50.954;3.112;2023-01-01T03:30:17;7.72;;;2.50;;
18931;SDS011;9598;50.954;3.112;2023-01-01T03:35:22;5.18;;;2.63;;
18931;SDS011;9598;50.954;3.112;2023-01-01T03:40:27;5.78;;;2.10;;
18931;SDS011;9598;50.954;3.112;2023-01-01T03:45:32;3.03;;;0.93;;
18931;SDS011;9598;50.954;3.112;2023-01-01T03:56:04;2.55;;;1.38;;
18931;SDS011;9598;50.954;3.112;2023-01-01T04:01:15;5.30;;;1.20;;
18931;SDS011;9598;50.954;3.112;2023-01-01T04:06:24;2.17;;;1.02;;
18931;SDS011;9598;50.954;3.112;2023-01-01T04:11:27;2.85;;;1.23;;
18931;SDS011;9598;50.954;3.112;2023-01-01T04:16:49;4.57;;;1.08;;
18931;SDS011;9598;50.954;3.112;2023-01-01T04:21:52;3.75;;;1.13;;
18931;SDS011;9598;50.954;3.112;2023-01-01T04:26:55;2.15;;;1.02;;
18931;SDS011;9598;50.954;3.112;2023-01-01T04:31:57;1.60;;;0.90;;
18931;SDS011;9598;50.954;3.112;2023-01-01T04:37:00;4.32;;;1.02;;
18931;SDS011;9598;50.954;3.112;2023-01-01T04:42:02;3.58;;;1.42;;
18931;SDS011;9598;50.954;3.112;2023-01-01T04:47:05;5.38;;;1.48;;
18931;SDS011;9598;50.954;3.112;2023-01-01T04:52:09;5.30;;;1.55;;
18931;SDS011;9598;50.954;3.112;2023-01-01T04:57:11;7.95;;;2.97;;
18931;SDS011;9598;50.954;3.112;2023-01-01T05:02:13;8.27;;;2.63;;
18931;SDS011;9598;50.954;3.112;2023-01-01T05:07:17;6.68;;;2.40;;
18931;SDS011;9598;50.954;3.112;2023-01-01T05:12:19;8.30;;;2.53;;
18931;SDS011;9598;50.954;3.112;2023-01-01T05:17:21;7.43;;;2.53;;
18931;SDS011;9598;50.954;3.112;2023-01-01T05:22:25;10.65;;;2.65;;
18931;SDS011;9598;50.954;3.112;2023-01-01T05:27:27;10.18;;;2.30;;
18931;SDS011;9598;50.954;3.112;2023-01-01T05:32:29;7.05;;;2.28;;
18931;SDS011;9598;50.954;3.112;2023-01-01T05:37:32;3.60;;;1.58;;
18931;SDS011;9598;50.954;3.112;2023-01-01T05:42:34;9.35;;;2.10;;
18931;SDS011;9598;50.954;3.112;2023-01-01T05:47:36;7.32;;;2.10;;
18931;SDS011;9598;50.954;3.112;2023-01-01T05:52:40;7.43;;;2.20;;
18931;SDS011;9598;50.954;3.112;2023-01-01T05:57:42;7.95;;;2.28;;
18931;SDS011;9598;50.954;3.112;2023-01-01T06:02:44;7.32;;;2.30;;
18931;SDS011;9598;50.954;3.112;2023-01-01T06:07:50;7.47;;;2.20;;
18931;SDS011;9598;50.954;3.112;2023-01-01T06:12:53;5.32;;;1.83;;
18931;SDS011;9598;50.954;3.112;2023-01-01T06:17:57;5.93;;;2.22;;
18931;SDS011;9598;50.954;3.112;2023-01-01T06:23:01;7.18;;;2.25;;
18931;SDS011;9598;50.954;3.112;2023-01-01T06:28:03;6.72;;;2.15;;
18931;SDS011;9598;50.954;3.112;2023-01-01T06:33:05;8.30;;;1.98;;
18931;SDS011;9598;50.954;3.112;2023-01-01T06:38:09;7.47;;;2.05;;
18931;SDS011;9598;50.954;3.112;2023-01-01T06:43:11;5.45;;;1.60;;
18931;SDS011;9598;50.954;3.112;2023-01-01T06:48:13;10.95;;;2.58;;
18931;SDS011;9598;50.954;3.112;2023-01-01T06:53:17;7.47;;;2.22;;
18931;SDS011;9598;50.954;3.112;2023-01-01T06:58:19;6.82;;;2.20;;
18931;SDS011;9598;50.954;3.112;2023-01-01T07:03:21;4.22;;;1.45;;
18931;SDS011;9598;50.954;3.112;2023-01-01T07:08:24;7.30;;;2.20;;
18931;SDS011;9598;50.954;3.112;2023-01-01T07:13:27;5.85;;;1.85;;
18931;SDS011;9598;50.954;3.112;2023-01-01T07:18:30;8.57;;;2.33;;
18931;SDS011;9598;50.954;3.112;2023-01-01T07:23:34;9.18;;;2.70;;
18931;SDS011;9598;50.954;3.112;2023-01-01T07:28:38;7.28;;;1.83;;
18931;SDS011;9598;50.954;3.112;2023-01-01T07:33:40;6.78;;;2.40;;
18931;SDS011;9598;50.954;3.112;2023-01-01T07:38:43;6.88;;;2.33;;
18931;SDS011;9598;50.954;3.112;2023-01-01T07:43:45;9.70;;;3.38;;
18931;SDS011;9598;50.954;3.112;2023-01-01T07:48:48;6.45;;;2.40;;
18931;SDS011;9598;50.954;3.112;2023-01-01T07:53:51;6.65;;;2.70;;
18931;SDS011;9598;50.954;3.112;2023-01-01T07:58:53;11.25;;;3.80;;
18931;SDS011;9598;50.954;3.112;2023-01-01T08:03:55;9.00;;;3.38;;
18931;SDS011;9598;50.954;3.112;2023-01-01T08:08:59;9.88;;;3.38;;
18931;SDS011;9598;50.954;3.112;2023-01-01T08:14:02;7.47;;;2.85;;
18931;SDS011;9598;50.954;3.112;2023-01-01T08:19:04;11.02;;;3.45;;
18931;SDS011;9598;50.954;3.112;2023-01-01T08:24:07;14.75;;;4.30;;
18931;SDS011;9598;50.954;3.112;2023-01-01T08:29:10;8.50;;;3.55;;
18931;SDS011;9598;50.954;3.112;2023-01-01T08:34:12;9.38;;;3.33;;
18931;SDS011;9598;50.954;3.112;2023-01-01T08:39:15;9.65;;;3.17;;
18931;SDS011;9598;50.954;3.112;2023-01-01T08:44:17;11.50;;;3.60;;
18931;SDS011;9598;50.954;3.112;2023-01-01T08:49:20;9.00;;;3.30;;
18931;SDS011;9598;50.954;3.112;2023-01-01T08:54:23;11.93;;;3.60;;
18931;SDS011;9598;50.954;3.112;2023-01-01T08:59:25;7.25;;;3.38;;
18931;SDS011;9598;50.954;3.112;2023-01-01T09:04:27;8.43;;;2.90;;
18931;SDS011;9598;50.954;3.112;2023-01-01T09:09:31;8.60;;;3.00;;
18931;SDS011;9598;50.954;3.112;2023-01-01T09:14:33;8.25;;;2.80;;
18931;SDS011;9598;50.954;3.112;2023-01-01T09:19:36;7.53;;;2.90;;
18931;SDS011;9598;50.954;3.112;2023-01-01T09:24:39;9.13;;;3.08;;
18931;SDS011;9598;50.954;3.112;2023-01-01T09:29:41;10.20;;;3.55;;
18931;SDS011;9598;50.954;3.112;2023-01-01T09:34:43;12.55;;;3.38;;
18931;SDS011;9598;50.954;3.112;2023-01-01T09:39:47;9.35;;;3.40;;
18931;SDS011;9598;50.954;3.112;2023-01-01T09:44:52;7.90;;;2.92;;
18931;SDS011;9598;50.954;3.112;2023-01-01T09:50:04;10.00;;;3.38;;
18931;SDS011;9598;50.954;3.112;2023-01-01T09:55:11;7.35;;;2.63;;
18931;SDS011;9598;50.954;3.112;2023-01-01T10:00:20;9.07;;;2.95;;
18931;SDS011;9598;50.954;3.112;2023-01-01T10:05:26;10.13;;;3.10;;
18931;SDS011;9598;50.954;3.112;2023-01-01T10:10:37;14.85;;;3.70;;
18931;SDS011;9598;50.954;3.112;2023-01-01T10:15:43;6.75;;;2.92;;
18931;SDS011;9598;50.954;3.112;2023-01-01T10:20:57;5.53;;;3.03;;
18931;SDS011;9598;50.954;3.112;2023-01-01T10:26:06;10.95;;;3.10;;
18931;SDS011;9598;50.954;3.112;2023-01-01T10:31:15;13.23;;;3.85;;
18931;SDS011;9598;50.954;3.112;2023-01-01T10:36:18;12.27;;;3.58;;
18931;SDS011;9598;50.954;3.112;2023-01-01T10:41:22;9.57;;;4.35;;
18931;SDS011;9598;50.954;3.112;2023-01-01T10:46:24;11.48;;;3.75;;
18931;SDS011;9598;50.954;3.112;2023-01-01T10:51:27;13.18;;;3.92;;
18931;SDS011;9598;50.954;3.112;2023-01-01T10:56:39;9.57;;;3.88;;
18931;SDS011;9598;50.954;3.112;2023-01-01T11:01:42;8.32;;;3.15;;
18931;SDS011;9598;50.954;3.112;2023-01-01T11:06:45;7.70;;;2.78;;
18931;SDS011;9598;50.954;3.112;2023-01-01T11:11:53;12.85;;;3.75;;
18931;SDS011;9598;50.954;3.112;2023-01-01T11:16:57;9.13;;;2.88;;
18931;SDS011;9598;50.954;3.112;2023-01-01T11:22:00;10.75;;;3.25;;
18931;SDS011;9598;50.954;3.112;2023-01-01T11:27:17;9.30;;;2.83;;
18931;SDS011;9598;50.954;3.112;2023-01-01T11:32:24;10.57;;;3.30;;
18931;SDS011;9598;50.954;3.112;2023-01-01T11:37:32;11.80;;;3.28;;
18931;SDS011;9598;50.954;3.112;2023-01-01T11:42:42;11.88;;;3.50;;
18931;SDS011;9598;50.954;3.112;2023-01-01T11:47:49;11.20;;;3.35;;
18931;SDS011;9598;50.954;3.112;2023-01-01T11:52:55;9.93;;;3.28;;
18931;SDS011;9598;50.954;3.112;2023-01-01T11:58:02;8.27;;;2.97;;
18931;SDS011;9598;50.954;3.112;2023-01-01T12:03:11;12.02;;;3.80;;
18931;SDS011;9598;50.954;3.112;2023-01-01T12:08:27;10.68;;;2.90;;
18931;SDS011;9598;50.954;3.112;2023-01-01T12:13:36;9.55;;;3.35;;
18931;SDS011;9598;50.954;3.112;2023-01-01T12:18:46;10.85;;;3.95;;
18931;SDS011;9598;50.954;3.112;2023-01-01T12:23:53;10.10;;;3.83;;
18931;SDS011;9598;50.954;3.112;2023-01-01T12:29:12;11.02;;;3.67;;
18931;SDS011;9598;50.954;3.112;2023-01-01T12:34:34;10.80;;;3.13;;
18931;SDS011;9598;50.954;3.112;2023-01-01T12:51:14;9.68;;;3.33;;
18931;SDS011;9598;50.954;3.112;2023-01-01T12:56:26;9.93;;;3.08;;
18931;SDS011;9598;50.954;3.112;2023-01-01T13:01:36;11.25;;;3.05;;
18931;SDS011;9598;50.954;3.112;2023-01-01T13:06:40;11.07;;;3.45;;
18931;SDS011;9598;50.954;3.112;2023-01-01T13:11:48;14.30;;;4.00;;
18931;SDS011;9598;50.954;3.112;2023-01-01T13:16:56;8.50;;;3.50;;
18931;SDS011;9598;50.954;3.112;2023-01-01T13:21:59;11.05;;;3.88;;
18931;SDS011;9598;50.954;3.112;2023-01-01T13:27:36;8.30;;;3.40;;
18931;SDS011;9598;50.954;3.112;2023-01-01T13:33:12;10.70;;;3.58;;
18931;SDS011;9598;50.954;3.112;2023-01-01T13:38:42;12.77;;;4.22;;
18931;SDS011;9598;50.954;3.112;2023-01-01T13:43:45;14.43;;;9.43;;
18931;SDS011;9598;50.954;3.112;2023-01-01T13:54:41;10.90;;;3.85;;
18931;SDS011;9598;50.954;3.112;2023-01-01T14:00:04;10.18;;;4.07;;
18931;SDS011;9598;50.954;3.112;2023-01-01T14:05:20;10.07;;;3.75;;
18931;SDS011;9598;50.954;3.112;2023-01-01T14:10:28;13.02;;;6.85;;
18931;SDS011;9598;50.954;3.112;2023-01-01T14:15:32;15.32;;;6.55;;
18931;SDS011;9598;50.954;3.112;2023-01-01T14:20:38;10.40;;;4.28;;
18931;SDS011;9598;50.954;3.112;2023-01-01T14:25:44;9.07;;;4.15;;
18931;SDS011;9598;50.954;3.112;2023-01-01T14:30:47;11.50;;;4.93;;
18931;SDS011;9598;50.954;3.112;2023-01-01T14:35:53;12.98;;;4.22;;
18931;SDS011;9598;50.954;3.112;2023-01-01T14:41:00;12.77;;;4.40;;
18931;SDS011;9598;50.954;3.112;2023-01-01T14:46:12;14.02;;;4.78;;
18931;SDS011;9598;50.954;3.112;2023-01-01T14:51:19;11.70;;;4.97;;
18931;SDS011;9598;50.954;3.112;2023-01-01T14:56:25;11.15;;;4.93;;
18931;SDS011;9598;50.954;3.112;2023-01-01T15:01:29;12.55;;;4.70;;
18931;SDS011;9598;50.954;3.112;2023-01-01T15:06:32;13.15;;;4.80;;
18931;SDS011;9598;50.954;3.112;2023-01-01T15:11:41;13.45;;;4.97;;
18931;SDS011;9598;50.954;3.112;2023-01-01T15:16:43;10.73;;;5.55;;
18931;SDS011;9598;50.954;3.112;2023-01-01T15:22:00;14.50;;;5.93;;
18931;SDS011;9598;50.954;3.112;2023-01-01T15:27:20;11.70;;;4.82;;
18931;SDS011;9598;50.954;3.112;2023-01-01T15:32:25;13.13;;;5.57;;
18931;SDS011;9598;50.954;3.112;2023-01-01T15:37:31;12.50;;;5.53;;
18931;SDS011;9598;50.954;3.112;2023-01-01T15:42:39;10.68;;;6.50;;
18931;SDS011;9598;50.954;3.112;2023-01-01T15:47:42;12.30;;;6.47;;
18931;SDS011;9598;50.954;3.112;2023-01-01T15:52:46;13.18;;;5.63;;
18931;SDS011;9598;50.954;3.112;2023-01-01T15:57:51;12.52;;;5.50;;
18931;SDS011;9598;50.954;3.112;2023-01-01T16:02:54;13.98;;;5.97;;
18931;SDS011;9598;50.954;3.112;2023-01-01T16:08:03;10.63;;;5.45;;
18931;SDS011;9598;50.954;3.112;2023-01-01T16:13:06;11.60;;;5.63;;
18931;SDS011;9598;50.954;3.112;2023-01-01T16:18:08;20.33;;;13.45;;
18931;SDS011;9598;50.954;3.112;2023-01-01T16:23:14;9.40;;;6.90;;
18931;SDS011;9598;50.954;3.112;2023-01-01T16:28:17;9.88;;;6.20;;
18931;SDS011;9598;50.954;3.112;2023-01-01T16:33:20;10.05;;;6.45;;
18931;SDS011;9598;50.954;3.112;2023-01-01T16:38:25;11.88;;;6.32;;
18931;SDS011;9598;50.954;3.112;2023-01-01T16:43:27;8.55;;;6.90;;
18931;SDS011;9598;50.954;3.112;2023-01-01T16:48:30;8.23;;;5.60;;
18931;SDS011;9598;50.954;3.112;2023-01-01T16:53:33;11.85;;;6.35;;
18931;SDS011;9598;50.954;3.112;2023-01-01T16:58:37;13.38;;;6.05;;
18931;SDS011;9598;50.954;3.112;2023-01-01T17:03:39;9.55;;;5.35;;
18931;SDS011;9598;50.954;3.112;2023-01-01T17:08:43;6.47;;;4.40;;
18931;SDS011;9598;50.954;3.112;2023-01-01T17:13:46;6.55;;;4.93;;
18931;SDS011;9598;50.954;3.112;2023-01-01T17:18:49;9.55;;;5.95;;
18931;SDS011;9598;50.954;3.112;2023-01-01T17:23:53;9.95;;;7.07;;
18931;SDS011;9598;50.954;3.112;2023-01-01T17:28:55;11.10;;;6.28;;
18931;SDS011;9598;50.954;3.112;2023-01-01T17:33:57;11.40;;;6.70;;
18931;SDS011;9598;50.954;3.112;2023-01-01T17:39:01;14.23;;;12.27;;
18931;SDS011;9598;50.954;3.112;2023-01-01T17:44:03;12.50;;;7.07;;
18931;SDS011;9598;50.954;3.112;2023-01-01T17:49:06;7.50;;;6.47;;
18931;SDS011;9598;50.954;3.112;2023-01-01T17:54:11;9.07;;;7.25;;
18931;SDS011;9598;50.954;3.112;2023-01-01T17:59:13;8.85;;;5.55;;
18931;SDS011;9598;50.954;3.112;2023-01-01T18:04:15;7.00;;;4.88;;
18931;SDS011;9598;50.954;3.112;2023-01-01T18:09:19;6.57;;;5.55;;
18931;SDS011;9598;50.954;3.112;2023-01-01T18:14:22;9.13;;;5.82;;
18931;SDS011;9598;50.954;3.112;2023-01-01T18:19:27;8.07;;;5.72;;
18931;SDS011;9598;50.954;3.112;2023-01-01T18:24:31;6.75;;;5.93;;
18931;SDS011;9598;50.954;3.112;2023-01-01T18:29:34;7.40;;;5.53;;
18931;SDS011;9598;50.954;3.112;2023-01-01T18:34:36;6.82;;;5.50;;
18931;SDS011;9598;50.954;3.112;2023-01-01T18:39:39;6.40;;;5.57;;
18931;SDS011;9598;50.954;3.112;2023-01-01T18:44:42;11.70;;;7.43;;
18931;SDS011;9598;50.954;3.112;2023-01-01T18:49:46;7.15;;;5.65;;
18931;SDS011;9598;50.954;3.112;2023-01-01T18:54:51;9.07;;;7.45;;
18931;SDS011;9598;50.954;3.112;2023-01-01T19:00:05;9.82;;;6.10;;
18931;SDS011;9598;50.954;3.112;2023-01-01T19:05:19;8.43;;;6.03;;
18931;SDS011;9598;50.954;3.112;2023-01-01T19:10:25;9.90;;;7.72;;
18931;SDS011;9598;50.954;3.112;2023-01-01T19:15:35;10.02;;;7.05;;
18931;SDS011;9598;50.954;3.112;2023-01-01T19:20:37;9.70;;;7.78;;
18931;SDS011;9598;50.954;3.112;2023-01-01T19:25:40;9.55;;;7.45;;
18931;SDS011;9598;50.954;3.112;2023-01-01T19:30:43;12.13;;;8.18;;
18931;SDS011;9598;50.954;3.112;2023-01-01T19:35:45;12.52;;;10.77;;
18931;SDS011;9598;50.954;3.112;2023-01-01T19:40:49;11.13;;;9.02;;
18931;SDS011;9598;50.954;3.112;2023-01-01T19:45:51;10.25;;;7.90;;
18931;SDS011;9598;50.954;3.112;2023-01-01T19:50:53;10.15;;;6.97;;
18931;SDS011;9598;50.954;3.112;2023-01-01T19:55:57;10.68;;;8.93;;
18931;SDS011;9598;50.954;3.112;2023-01-01T20:00:59;12.15;;;8.15;;
18931;SDS011;9598;50.954;3.112;2023-01-01T20:06:02;9.38;;;8.02;;
18931;SDS011;9598;50.954;3.112;2023-01-01T20:11:08;11.25;;;7.80;;
18931;SDS011;9598;50.954;3.112;2023-01-01T20:16:10;10.50;;;7.32;;
18931;SDS011;9598;50.954;3.112;2023-01-01T20:21:13;12.38;;;8.98;;
18931;SDS011;9598;50.954;3.112;2023-01-01T20:26:34;11.30;;;9.63;;
18931;SDS011;9598;50.954;3.112;2023-01-01T20:31:36;10.93;;;9.13;;
18931;SDS011;9598;50.954;3.112;2023-01-01T20:36:38;12.25;;;8.98;;
18931;SDS011;9598;50.954;3.112;2023-01-01T20:42:00;10.77;;;7.38;;
18931;SDS011;9598;50.954;3.112;2023-01-01T20:47:03;10.35;;;6.38;;
18931;SDS011;9598;50.954;3.112;2023-01-01T20:52:05;8.85;;;5.82;;
18931;SDS011;9598;50.954;3.112;2023-01-01T20:57:09;12.50;;;6.32;;
18931;SDS011;9598;50.954;3.112;2023-01-01T21:02:12;9.07;;;6.15;;
18931;SDS011;9598;50.954;3.112;2023-01-01T21:07:14;10.73;;;6.90;;
18931;SDS011;9598;50.954;3.112;2023-01-01T21:12:17;12.02;;;6.57;;
18931;SDS011;9598;50.954;3.112;2023-01-01T21:17:20;10.05;;;5.60;;
18931;SDS011;9598;50.954;3.112;2023-01-01T21:22:24;9.63;;;8.43;;
18931;SDS011;9598;50.954;3.112;2023-01-01T21:27:30;11.85;;;5.93;;
18931;SDS011;9598;50.954;3.112;2023-01-01T21:32:35;8.82;;;5.55;;
18931;SDS011;9598;50.954;3.112;2023-01-01T21:37:39;7.43;;;5.32;;
18931;SDS011;9598;50.954;3.112;2023-01-01T21:42:52;10.30;;;5.88;;
18931;SDS011;9598;50.954;3.112;2023-01-01T21:47:55;8.55;;;5.93;;
18931;SDS011;9598;50.954;3.112;2023-01-01T21:53:09;9.25;;;6.47;;
18931;SDS011;9598;50.954;3.112;2023-01-01T21:58:16;13.10;;;6.93;;
18931;SDS011;9598;50.954;3.112;2023-01-01T22:03:37;9.63;;;6.35;;
18931;SDS011;9598;50.954;3.112;2023-01-01T22:08:39;9.48;;;5.57;;
18931;SDS011;9598;50.954;3.112;2023-01-01T22:13:45;12.32;;;5.90;;
18931;SDS011;9598;50.954;3.112;2023-01-01T22:18:47;8.90;;;6.38;;
18931;SDS011;9598;50.954;3.112;2023-01-01T22:23:50;8.73;;;5.63;;
18931;SDS011;9598;50.954;3.112;2023-01-01T22:28:59;11.02;;;5.88;;
18931;SDS011;9598;50.954;3.112;2023-01-01T22:34:07;12.48;;;6.32;;
18931;SDS011;9598;50.954;3.112;2023-01-01T22:39:15;12.18;;;5.95;;
18931;SDS011;9598;50.954;3.112;2023-01-01T22:44:25;10.02;;;6.20;;
18931;SDS011;9598;50.954;3.112;2023-01-01T22:49:30;9.00;;;5.53;;
18931;SDS011;9598;50.954;3.112;2023-01-01T22:54:38;7.60;;;5.90;;
18931;SDS011;9598;50.954;3.112;2023-01-01T22:59:41;9.68;;;5.75;;
18931;SDS011;9598;50.954;3.112;2023-01-01T23:04:43;7.43;;;5.78;;
18931;SDS011;9598;50.954;3.112;2023-01-01T23:09:45;9.18;;;5.93;;
18931;SDS011;9598;50.954;3.112;2023-01-01T23:14:49;9.88;;;6.03;;
18931;SDS011;9598;50.954;3.112;2023-01-01T23:20:09;10.60;;;6.60;;
18931;SDS011;9598;50.954;3.112;2023-01-01T23:25:12;8.60;;;6.30;;
18931;SDS011;9598;50.954;3.112;2023-01-01T23:30:21;11.38;;;6.05;;
18931;SDS011;9598;50.954;3.112;2023-01-01T23:35:23;7.70;;;6.20;;
18931;SDS011;9598;50.954;3.112;2023-01-01T23:40:25;9.13;;;5.80;;
18931;SDS011;9598;50.954;3.112;2023-01-01T23:45:29;10.07;;;6.82;;
18931;SDS011;9598;50.954;3.112;2023-01-01T23:50:31;7.95;;;5.60;;
18931;SDS011;9598;50.954;3.112;2023-01-01T23:55:33;9.15;;;5.72;;
